KBED/BED METAR and TAF weather

Enter ICAO airport designator
Station Type Date Time Source
KBED METAR 2019/04/25 21:56 UTC NOAA

KBED 252156Z 12011KT 10SM SCT250 13/04 A2991 RMK AO2 SLP141 T01330039


Station Type Date Time Source
KBED Decoded METAR 2019/04/25 21:56 UTC NOAA

BEDFORD HANSCOM FIELD, MA, United States (KBED) 42-28N 071-18W 50M
Apr 25, 2019 - 05:56 PM EDT / 2019.04.25 2156 UTC
Wind: from the ESE (120 degrees) at 13 MPH (11 KT):0
Visibility: 10 mile(s):0
Sky conditions: partly cloudy
Temperature: 55.9 F (13.3 C)
Dew Point: 39.0 F (3.9 C)
Relative Humidity: 52%
Pressure (altimeter): 29.91 in. Hg (1012 hPa)
ob: KBED 252156Z 12011KT 10SM SCT250 13/04 A2991 RMK AO2 SLP141 T01330039
cycle: 22

Station Type Date Time Source
KBED TAF 2019/04/25 20:24 UTC NOAA

TAF
AMD KBED 252023Z 2520/2618 11013KT P6SM FEW040 SCT250
FM260000 13006KT P6SM SCT100 BKN250
FM260700 VRB03KT P6SM BKN110
FM261100 11005KT P6SM -SHRA OVC045
FM261300 11008KT 4SM -SHRA BR OVC015
FM261500 11009KT 2SM -SHRA BR OVC005

Example: see airport list